Archival Weather

NSFA McMurdo Sound

NSFA McMurdo Sound, Antarctica (NZCM)

Report from: Thursday, September 21, 2023 4:55 PM UTC
Current time: Saturday, February 24, 2024 4:47 PM UTC

Current weather – Weather history – Daily summaries
Weather forecast

Present weatherLight snow, mist
Temperature-13.6°C (7.5°F)
Wind chill-24.9°C (-12.9°F)
Dew point-16.3°C (2.7°F)
Winds 19 kts (9.8 m/s, 21.9 mph) East-Southeast (120°)
Wind gusts 30 kts (15.4 m/s, 34.5 mph)
Peak wind 33 kts (17 m/s, 38 mph) Southeast (130°) at 15:59
Visibility1.3 mi. (2.1 km)
Clouds Ceiling: Overcast 800 ft. (244 m)
Altimeter28.97 in.Hg (981 mB)
Precip. events Snow began 4:36 PM
Relative humidity80 %
Density altitude-5,872 ft. (-1,790 m)
Sea-level pressure108.1 kPa (1081 mB, 31.93 in.Hg)
Remarks Fully automated report
Automated weather observing station with precipitation discriminator
Flight conditions Instrument Meteorological Conditions
Raw dataNZCM 211655Z AUTO 12019G30KT 2100 -SN BR OVC008 M14/M16 A2897 RMK AO2 PK WND 13033/1559 SNB1636 SLP814 T11361163
An error has occurred. This application may no longer respond until reloaded. Reload 🗙